Current Weather

Phoenix Goodyear

Goodyear, Arizona (KGYR)

Report from: Monday, August 15, 2022 4:47 PM MST
Current time: Monday, August 15, 2022 5:31 PM MST

Nearby weather
Weather history
Weather forecast

Temperature38.0°C (100.4°F)
Heat index40.6°C (105.1°F)
Dew point19.0°C (66.2°F)
Winds 11 kts (5.7 m/s, 12.7 mph) Southwest (230°)
Visibility10 mi. (16.1 km)
Clouds Few clouds 7,000 ft. (2,134 m)
Scattered clouds 15,000 ft. (4,572 m)
Altimeter29.74 in.Hg (1007 mB)
Relative humidity33 %
Density altitude3,098 ft. (944 m)
Flight conditions Visual Meteorological Conditions
Raw dataKGYR 152347Z 23011KT 10SM FEW070 SCT150 38/19 A2974
An error has occurred. This application may no longer respond until reloaded. Reload 🗙